Buchanan, Canada
Current Conditions -  °F | °C
As of 12:10 AM on Sunday 21 Dec 2014 (Local Time) from CYQV Reporting Station
Haze Haze  
Wind Chill: 17°   Ceiling: 300
Heat Index: 27°   Visibility: 1.5mi
Dew Point: 27°   Wind: 9mph
Humidity: 100%   Direction: 170°S
Pressure: 29.63"   Gusts: NA
Location:  51.7°N, 102.75°W
Report Text: CYQV 210610Z AUTO 17008KT 1 1/2SM BR BKN003 OVC012 M03/M03 A2963 RMK ICG PAST HR SLP065
Loading
Personal Weather Stations






























Interactive Weather Map New forecast layout! Learn more

10-Day Weather Forecast

Advertisements
Track Severe Weather on mobile